Weather at Saanen Airport

Public forecast

Using degrees Celsius for public forecast. Weather courtesy of forecast.io.

Closest aviation weather report (METAR) to Saanen Airport

Closest report is Sion Airport, 16.4 nm (30.4 km) S. Retrieved 2020/10/21 23:20 UTC (7 minutes ago):

LSGS 212320Z AUTO 00000KT CAVOK 10/05 Q1020

Closest aviation forecast (TAF) to Saanen Airport

Forecast is more than 6 hours old.

Closest forecast is Payerne Air Base, 25.4 nm (47.1 km) NNW. Retrieved 2020/10/21 17:00 UTC (6 hours ago):

TAF LSMP 211625Z 2117/2223 VRB03KT CAVOK PROB30 TEMPO 2202/2207 4000 BR BECMG 2212/2215 9999 SHRA FEW040 BKN060